sensor_id;sensor_type;location;lat;lon;timestamp;temperature;humidity
3416;DHT22;1721;51.238;9.562;2023-06-10T00:01:33;16.50;93.40
3416;DHT22;1721;51.238;9.562;2023-06-10T00:04:02;16.50;93.50
3416;DHT22;1721;51.238;9.562;2023-06-10T00:06:28;16.40;93.60
3416;DHT22;1721;51.238;9.562;2023-06-10T00:08:54;16.50;93.60
3416;DHT22;1721;51.238;9.562;2023-06-10T00:11:22;16.50;93.60
3416;DHT22;1721;51.238;9.562;2023-06-10T00:13:47;16.50;93.60
3416;DHT22;1721;51.238;9.562;2023-06-10T00:16:13;16.50;93.60
3416;DHT22;1721;51.238;9.562;2023-06-10T00:18:38;16.40;93.70
3416;DHT22;1721;51.238;9.562;2023-06-10T00:21:04;16.40;93.60
3416;DHT22;1721;51.238;9.562;2023-06-10T00:23:30;16.20;93.80
3416;DHT22;1721;51.238;9.562;2023-06-10T00:25:59;16.20;94.00
3416;DHT22;1721;51.238;9.562;2023-06-10T00:28:25;16.20;94.00
3416;DHT22;1721;51.238;9.562;2023-06-10T00:30:52;16.20;93.90
3416;DHT22;1721;51.238;9.562;2023-06-10T00:33:18;16.20;93.70
3416;DHT22;1721;51.238;9.562;2023-06-10T00:35:43;16.20;93.70
3416;DHT22;1721;51.238;9.562;2023-06-10T00:38:09;16.20;93.50
3416;DHT22;1721;51.238;9.562;2023-06-10T00:40:41;16.20;93.40
3416;DHT22;1721;51.238;9.562;2023-06-10T00:43:08;16.10;93.40
3416;DHT22;1721;51.238;9.562;2023-06-10T00:45:34;16.00;93.20
3416;DHT22;1721;51.238;9.562;2023-06-10T00:48:01;16.00;93.30
3416;DHT22;1721;51.238;9.562;2023-06-10T00:50:27;16.00;93.20
3416;DHT22;1721;51.238;9.562;2023-06-10T00:52:56;16.00;93.10
3416;DHT22;1721;51.238;9.562;2023-06-10T00:55:22;16.00;93.10
3416;DHT22;1721;51.238;9.562;2023-06-10T00:57:48;16.00;93.00
3416;DHT22;1721;51.238;9.562;2023-06-10T01:00:16;15.90;92.90
3416;DHT22;1721;51.238;9.562;2023-06-10T01:02:42;15.90;93.00
3416;DHT22;1721;51.238;9.562;2023-06-10T01:05:08;15.90;93.00
3416;DHT22;1721;51.238;9.562;2023-06-10T01:07:48;15.80;93.00
3416;DHT22;1721;51.238;9.562;2023-06-10T01:10:50;15.80;92.80
3416;DHT22;1721;51.238;9.562;2023-06-10T01:13:17;15.70;92.80
3416;DHT22;1721;51.238;9.562;2023-06-10T01:15:43;15.70;92.90
3416;DHT22;1721;51.238;9.562;2023-06-10T01:18:10;15.70;92.80
3416;DHT22;1721;51.238;9.562;2023-06-10T01:20:41;15.60;92.70
3416;DHT22;1721;51.238;9.562;2023-06-10T01:23:09;15.60;92.60
3416;DHT22;1721;51.238;9.562;2023-06-10T01:25:40;15.60;92.70
3416;DHT22;1721;51.238;9.562;2023-06-10T01:28:21;15.60;92.80
3416;DHT22;1721;51.238;9.562;2023-06-10T01:31:09;15.50;92.80
3416;DHT22;1721;51.238;9.562;2023-06-10T01:33:43;15.50;92.70
3416;DHT22;1721;51.238;9.562;2023-06-10T01:36:13;15.50;92.80
3416;DHT22;1721;51.238;9.562;2023-06-10T01:38:43;15.50;92.70
3416;DHT22;1721;51.238;9.562;2023-06-10T01:41:16;15.40;92.80
3416;DHT22;1721;51.238;9.562;2023-06-10T01:43:43;15.40;92.80
3416;DHT22;1721;51.238;9.562;2023-06-10T01:46:10;15.30;93.00
3416;DHT22;1721;51.238;9.562;2023-06-10T01:48:37;15.40;92.80
3416;DHT22;1721;51.238;9.562;2023-06-10T01:51:05;15.30;92.90
3416;DHT22;1721;51.238;9.562;2023-06-10T01:53:30;15.40;92.80
3416;DHT22;1721;51.238;9.562;2023-06-10T01:55:56;15.30;92.80
3416;DHT22;1721;51.238;9.562;2023-06-10T01:58:21;15.40;92.80
3416;DHT22;1721;51.238;9.562;2023-06-10T02:00:47;15.40;92.90
3416;DHT22;1721;51.238;9.562;2023-06-10T02:03:14;15.40;92.90
3416;DHT22;1721;51.238;9.562;2023-06-10T02:05:40;15.30;93.00
3416;DHT22;1721;51.238;9.562;2023-06-10T02:08:06;15.30;92.90
3416;DHT22;1721;51.238;9.562;2023-06-10T02:10:31;15.30;93.00
3416;DHT22;1721;51.238;9.562;2023-06-10T02:12:57;15.30;92.80
3416;DHT22;1721;51.238;9.562;2023-06-10T02:15:22;15.20;92.90
3416;DHT22;1721;51.238;9.562;2023-06-10T02:17:49;15.20;92.80
3416;DHT22;1721;51.238;9.562;2023-06-10T02:20:15;15.00;93.20
3416;DHT22;1721;51.238;9.562;2023-06-10T02:22:41;15.00;93.20
3416;DHT22;1721;51.238;9.562;2023-06-10T02:25:07;15.00;93.40
3416;DHT22;1721;51.238;9.562;2023-06-10T02:27:33;15.00;93.30
3416;DHT22;1721;51.238;9.562;2023-06-10T02:30:00;14.90;93.30
3416;DHT22;1721;51.238;9.562;2023-06-10T02:32:25;14.90;93.50
3416;DHT22;1721;51.238;9.562;2023-06-10T02:34:51;15.00;93.40
3416;DHT22;1721;51.238;9.562;2023-06-10T02:37:18;15.00;93.40
3416;DHT22;1721;51.238;9.562;2023-06-10T02:39:44;15.00;93.20
3416;DHT22;1721;51.238;9.562;2023-06-10T02:42:09;15.00;93.20
3416;DHT22;1721;51.238;9.562;2023-06-10T02:44:36;15.00;93.10
3416;DHT22;1721;51.238;9.562;2023-06-10T02:47:01;15.00;93.20
3416;DHT22;1721;51.238;9.562;2023-06-10T02:49:27;15.00;93.20
3416;DHT22;1721;51.238;9.562;2023-06-10T02:51:53;15.00;93.10
3416;DHT22;1721;51.238;9.562;2023-06-10T02:54:25;15.00;93.10
3416;DHT22;1721;51.238;9.562;2023-06-10T02:56:51;15.00;93.00
3416;DHT22;1721;51.238;9.562;2023-06-10T02:59:17;15.00;93.10
3416;DHT22;1721;51.238;9.562;2023-06-10T03:01:43;15.00;93.00
3416;DHT22;1721;51.238;9.562;2023-06-10T03:04:08;15.00;93.00
3416;DHT22;1721;51.238;9.562;2023-06-10T03:06:34;14.90;93.00
3416;DHT22;1721;51.238;9.562;2023-06-10T03:09:02;15.00;93.00
3416;DHT22;1721;51.238;9.562;2023-06-10T03:11:29;15.00;93.00
3416;DHT22;1721;51.238;9.562;2023-06-10T03:13:57;14.90;93.00
3416;DHT22;1721;51.238;9.562;2023-06-10T03:16:22;14.90;93.10
3416;DHT22;1721;51.238;9.562;2023-06-10T03:18:52;14.90;93.30
3416;DHT22;1721;51.238;9.562;2023-06-10T03:21:18;14.80;93.10
3416;DHT22;1721;51.238;9.562;2023-06-10T03:23:44;14.90;93.50
3416;DHT22;1721;51.238;9.562;2023-06-10T03:26:11;14.90;93.40
3416;DHT22;1721;51.238;9.562;2023-06-10T03:28:37;14.80;93.40
3416;DHT22;1721;51.238;9.562;2023-06-10T03:31:03;14.80;93.30
3416;DHT22;1721;51.238;9.562;2023-06-10T03:33:30;14.90;93.50
3416;DHT22;1721;51.238;9.562;2023-06-10T03:35:56;14.60;94.10
3416;DHT22;1721;51.238;9.562;2023-06-10T03:38:22;14.70;94.00
3416;DHT22;1721;51.238;9.562;2023-06-10T03:40:48;14.80;93.90
3416;DHT22;1721;51.238;9.562;2023-06-10T03:43:14;14.90;93.90
3416;DHT22;1721;51.238;9.562;2023-06-10T03:45:41;14.80;93.60
3416;DHT22;1721;51.238;9.562;2023-06-10T03:48:08;14.90;93.90
3416;DHT22;1721;51.238;9.562;2023-06-10T03:50:35;15.00;93.90
3416;DHT22;1721;51.238;9.562;2023-06-10T03:53:01;15.00;93.80
3416;DHT22;1721;51.238;9.562;2023-06-10T03:55:27;15.00;93.70
3416;DHT22;1721;51.238;9.562;2023-06-10T03:57:53;15.10;93.70
3416;DHT22;1721;51.238;9.562;2023-06-10T04:00:19;15.00;93.50
3416;DHT22;1721;51.238;9.562;2023-06-10T04:02:46;15.00;94.10
3416;DHT22;1721;51.238;9.562;2023-06-10T04:05:15;15.10;94.10
3416;DHT22;1721;51.238;9.562;2023-06-10T04:07:41;15.20;94.10
3416;DHT22;1721;51.238;9.562;2023-06-10T04:10:08;15.30;94.10
3416;DHT22;1721;51.238;9.562;2023-06-10T04:12:35;15.30;94.20
3416;DHT22;1721;51.238;9.562;2023-06-10T04:15:01;15.00;94.50
3416;DHT22;1721;51.238;9.562;2023-06-10T04:17:28;15.00;94.40
3416;DHT22;1721;51.238;9.562;2023-06-10T04:19:54;15.00;95.00
3416;DHT22;1721;51.238;9.562;2023-06-10T04:22:20;15.00;94.70
3416;DHT22;1721;51.238;9.562;2023-06-10T04:24:46;15.20;95.00
3416;DHT22;1721;51.238;9.562;2023-06-10T04:27:11;15.30;94.60
3416;DHT22;1721;51.238;9.562;2023-06-10T04:29:38;15.30;95.10
3416;DHT22;1721;51.238;9.562;2023-06-10T04:32:04;15.50;95.00
3416;DHT22;1721;51.238;9.562;2023-06-10T04:34:33;15.70;94.90
3416;DHT22;1721;51.238;9.562;2023-06-10T04:36:59;15.90;94.70
3416;DHT22;1721;51.238;9.562;2023-06-10T04:39:24;16.00;94.70
3416;DHT22;1721;51.238;9.562;2023-06-10T04:41:50;16.20;94.70
3416;DHT22;1721;51.238;9.562;2023-06-10T04:44:16;16.50;94.80
3416;DHT22;1721;51.238;9.562;2023-06-10T04:46:41;16.50;94.70
3416;DHT22;1721;51.238;9.562;2023-06-10T04:49:07;16.70;94.40
3416;DHT22;1721;51.238;9.562;2023-06-10T04:51:33;16.70;94.60
3416;DHT22;1721;51.238;9.562;2023-06-10T04:53:59;17.10;94.70
3416;DHT22;1721;51.238;9.562;2023-06-10T04:56:30;17.40;93.50
3416;DHT22;1721;51.238;9.562;2023-06-10T04:58:59;17.90;93.70
3416;DHT22;1721;51.238;9.562;2023-06-10T05:01:26;18.40;92.80
3416;DHT22;1721;51.238;9.562;2023-06-10T05:03:53;18.60;90.70
3416;DHT22;1721;51.238;9.562;2023-06-10T05:06:18;18.60;91.40
3416;DHT22;1721;51.238;9.562;2023-06-10T05:08:44;19.10;91.60
3416;DHT22;1721;51.238;9.562;2023-06-10T05:11:09;19.60;91.20
3416;DHT22;1721;51.238;9.562;2023-06-10T05:13:35;20.20;90.00
3416;DHT22;1721;51.238;9.562;2023-06-10T05:16:01;20.70;88.60
3416;DHT22;1721;51.238;9.562;2023-06-10T05:18:26;21.10;86.40
3416;DHT22;1721;51.238;9.562;2023-06-10T05:20:52;21.60;84.70
3416;DHT22;1721;51.238;9.562;2023-06-10T05:23:19;22.00;84.40
3416;DHT22;1721;51.238;9.562;2023-06-10T05:25:45;22.40;81.80
3416;DHT22;1721;51.238;9.562;2023-06-10T05:28:12;22.70;81.20
3416;DHT22;1721;51.238;9.562;2023-06-10T05:30:38;22.90;80.20
3416;DHT22;1721;51.238;9.562;2023-06-10T05:33:04;23.20;78.70
3416;DHT22;1721;51.238;9.562;2023-06-10T05:35:30;23.50;78.30
3416;DHT22;1721;51.238;9.562;2023-06-10T05:37:55;23.80;77.90
3416;DHT22;1721;51.238;9.562;2023-06-10T05:40:22;24.00;76.90
3416;DHT22;1721;51.238;9.562;2023-06-10T05:42:48;24.10;76.30
3416;DHT22;1721;51.238;9.562;2023-06-10T05:45:14;24.30;77.10
3416;DHT22;1721;51.238;9.562;2023-06-10T05:47:39;24.30;75.10
3416;DHT22;1721;51.238;9.562;2023-06-10T05:50:06;24.50;74.50
3416;DHT22;1721;51.238;9.562;2023-06-10T05:52:36;24.60;74.40
3416;DHT22;1721;51.238;9.562;2023-06-10T05:55:07;24.80;73.90
3416;DHT22;1721;51.238;9.562;2023-06-10T05:57:34;24.80;72.90
3416;DHT22;1721;51.238;9.562;2023-06-10T06:00:00;25.10;72.60
3416;DHT22;1721;51.238;9.562;2023-06-10T06:02:25;25.30;70.70
3416;DHT22;1721;51.238;9.562;2023-06-10T06:04:51;25.40;71.00
3416;DHT22;1721;51.238;9.562;2023-06-10T06:07:18;25.40;69.30
3416;DHT22;1721;51.238;9.562;2023-06-10T06:09:46;25.30;70.50
3416;DHT22;1721;51.238;9.562;2023-06-10T06:12:12;25.10;69.60
3416;DHT22;1721;51.238;9.562;2023-06-10T06:14:38;25.00;71.10
3416;DHT22;1721;51.238;9.562;2023-06-10T06:17:07;25.10;71.30
3416;DHT22;1721;51.238;9.562;2023-06-10T06:19:33;25.20;70.90
3416;DHT22;1721;51.238;9.562;2023-06-10T06:21:59;25.20;71.30
3416;DHT22;1721;51.238;9.562;2023-06-10T06:24:24;25.50;70.70
3416;DHT22;1721;51.238;9.562;2023-06-10T06:26:50;25.40;69.40
3416;DHT22;1721;51.238;9.562;2023-06-10T06:29:15;25.50;70.20
3416;DHT22;1721;51.238;9.562;2023-06-10T06:31:41;25.50;69.60
3416;DHT22;1721;51.238;9.562;2023-06-10T06:34:06;25.70;70.00
3416;DHT22;1721;51.238;9.562;2023-06-10T06:36:32;25.90;70.10
3416;DHT22;1721;51.238;9.562;2023-06-10T06:38:57;26.00;70.20
3416;DHT22;1721;51.238;9.562;2023-06-10T06:41:26;26.10;70.10
3416;DHT22;1721;51.238;9.562;2023-06-10T06:43:51;25.90;68.80
3416;DHT22;1721;51.238;9.562;2023-06-10T06:46:17;26.00;68.80
3416;DHT22;1721;51.238;9.562;2023-06-10T06:48:42;26.00;69.80
3416;DHT22;1721;51.238;9.562;2023-06-10T06:51:08;26.00;69.20
3416;DHT22;1721;51.238;9.562;2023-06-10T06:53:33;26.00;69.80
3416;DHT22;1721;51.238;9.562;2023-06-10T06:55:59;26.10;69.30
3416;DHT22;1721;51.238;9.562;2023-06-10T06:58:25;26.30;69.00
3416;DHT22;1721;51.238;9.562;2023-06-10T07:00:51;26.20;69.80
3416;DHT22;1721;51.238;9.562;2023-06-10T07:03:16;26.20;70.00
3416;DHT22;1721;51.238;9.562;2023-06-10T07:05:42;26.20;68.60
3416;DHT22;1721;51.238;9.562;2023-06-10T07:08:08;26.30;68.70
3416;DHT22;1721;51.238;9.562;2023-06-10T07:10:34;26.40;68.50
3416;DHT22;1721;51.238;9.562;2023-06-10T07:12:59;26.30;68.40
3416;DHT22;1721;51.238;9.562;2023-06-10T07:15:25;26.30;69.20
3416;DHT22;1721;51.238;9.562;2023-06-10T07:17:50;26.30;68.70
3416;DHT22;1721;51.238;9.562;2023-06-10T07:20:16;26.30;69.50
3416;DHT22;1721;51.238;9.562;2023-06-10T07:22:43;26.40;68.50
3416;DHT22;1721;51.238;9.562;2023-06-10T07:25:08;26.40;68.10
3416;DHT22;1721;51.238;9.562;2023-06-10T07:27:34;26.50;68.60
3416;DHT22;1721;51.238;9.562;2023-06-10T07:30:04;26.50;69.50
3416;DHT22;1721;51.238;9.562;2023-06-10T07:32:32;26.30;68.40
3416;DHT22;1721;51.238;9.562;2023-06-10T07:34:58;26.20;68.80
3416;DHT22;1721;51.238;9.562;2023-06-10T07:37:23;26.00;68.60
3416;DHT22;1721;51.238;9.562;2023-06-10T07:39:49;25.90;69.30
3416;DHT22;1721;51.238;9.562;2023-06-10T07:42:15;25.70;69.30
3416;DHT22;1721;51.238;9.562;2023-06-10T07:44:40;25.40;71.00
3416;DHT22;1721;51.238;9.562;2023-06-10T07:47:06;25.20;70.40
3416;DHT22;1721;51.238;9.562;2023-06-10T07:49:31;24.90;72.20
3416;DHT22;1721;51.238;9.562;2023-06-10T07:51:57;24.90;74.40
3416;DHT22;1721;51.238;9.562;2023-06-10T07:54:23;24.80;73.80
3416;DHT22;1721;51.238;9.562;2023-06-10T07:56:48;24.90;74.10
3416;DHT22;1721;51.238;9.562;2023-06-10T07:59:14;24.90;74.20
3416;DHT22;1721;51.238;9.562;2023-06-10T08:01:40;24.80;76.30
3416;DHT22;1721;51.238;9.562;2023-06-10T08:04:06;24.90;73.70
3416;DHT22;1721;51.238;9.562;2023-06-10T08:06:31;24.80;74.70
3416;DHT22;1721;51.238;9.562;2023-06-10T08:08:57;24.80;73.00
3416;DHT22;1721;51.238;9.562;2023-06-10T08:11:23;24.90;73.00
3416;DHT22;1721;51.238;9.562;2023-06-10T08:13:48;24.90;75.70
3416;DHT22;1721;51.238;9.562;2023-06-10T08:16:14;24.80;72.60
3416;DHT22;1721;51.238;9.562;2023-06-10T08:18:40;24.80;73.10
3416;DHT22;1721;51.238;9.562;2023-06-10T08:21:05;24.70;73.90
3416;DHT22;1721;51.238;9.562;2023-06-10T08:23:31;24.90;74.50
3416;DHT22;1721;51.238;9.562;2023-06-10T08:25:57;24.90;74.00
3416;DHT22;1721;51.238;9.562;2023-06-10T08:28:23;25.00;74.50
3416;DHT22;1721;51.238;9.562;2023-06-10T08:30:49;25.10;75.60
3416;DHT22;1721;51.238;9.562;2023-06-10T08:33:14;25.20;73.10
3416;DHT22;1721;51.238;9.562;2023-06-10T08:35:40;25.10;72.60
3416;DHT22;1721;51.238;9.562;2023-06-10T08:38:06;25.10;74.10
3416;DHT22;1721;51.238;9.562;2023-06-10T08:40:32;25.00;73.90
3416;DHT22;1721;51.238;9.562;2023-06-10T08:43:06;25.10;75.00
3416;DHT22;1721;51.238;9.562;2023-06-10T08:45:35;25.20;73.50
3416;DHT22;1721;51.238;9.562;2023-06-10T08:48:03;25.10;74.50
3416;DHT22;1721;51.238;9.562;2023-06-10T08:50:34;25.30;75.00
3416;DHT22;1721;51.238;9.562;2023-06-10T08:53:00;25.40;75.50
3416;DHT22;1721;51.238;9.562;2023-06-10T08:55:30;25.30;74.50
3416;DHT22;1721;51.238;9.562;2023-06-10T08:58:00;25.30;74.00
3416;DHT22;1721;51.238;9.562;2023-06-10T09:00:28;25.30;75.10
3416;DHT22;1721;51.238;9.562;2023-06-10T09:02:58;25.20;73.70
3416;DHT22;1721;51.238;9.562;2023-06-10T09:05:24;25.20;75.60
3416;DHT22;1721;51.238;9.562;2023-06-10T09:07:52;25.20;74.80
3416;DHT22;1721;51.238;9.562;2023-06-10T09:10:19;25.20;75.50
3416;DHT22;1721;51.238;9.562;2023-06-10T09:12:45;25.30;75.00
3416;DHT22;1721;51.238;9.562;2023-06-10T09:15:11;25.20;74.70
3416;DHT22;1721;51.238;9.562;2023-06-10T09:17:38;25.30;75.40
3416;DHT22;1721;51.238;9.562;2023-06-10T09:20:06;25.30;75.30
3416;DHT22;1721;51.238;9.562;2023-06-10T09:22:33;25.50;75.60
3416;DHT22;1721;51.238;9.562;2023-06-10T09:25:10;25.40;73.30
3416;DHT22;1721;51.238;9.562;2023-06-10T09:27:52;25.50;76.50
3416;DHT22;1721;51.238;9.562;2023-06-10T09:30:34;25.60;73.70
3416;DHT22;1721;51.238;9.562;2023-06-10T09:33:03;25.50;75.70
3416;DHT22;1721;51.238;9.562;2023-06-10T09:35:34;25.50;76.40
3416;DHT22;1721;51.238;9.562;2023-06-10T09:38:00;25.50;76.40
3416;DHT22;1721;51.238;9.562;2023-06-10T09:40:27;25.60;75.70
3416;DHT22;1721;51.238;9.562;2023-06-10T09:42:55;25.70;75.40
3416;DHT22;1721;51.238;9.562;2023-06-10T09:45:21;25.80;74.10
3416;DHT22;1721;51.238;9.562;2023-06-10T09:47:50;26.00;73.50
3416;DHT22;1721;51.238;9.562;2023-06-10T09:50:18;26.10;73.30
3416;DHT22;1721;51.238;9.562;2023-06-10T09:52:46;26.10;74.00
3416;DHT22;1721;51.238;9.562;2023-06-10T09:55:15;26.10;74.50
3416;DHT22;1721;51.238;9.562;2023-06-10T09:57:41;26.20;74.20
3416;DHT22;1721;51.238;9.562;2023-06-10T10:00:11;26.20;75.60
3416;DHT22;1721;51.238;9.562;2023-06-10T10:02:50;26.20;72.70
3416;DHT22;1721;51.238;9.562;2023-06-10T10:05:18;26.20;72.20
3416;DHT22;1721;51.238;9.562;2023-06-10T10:07:46;26.10;73.60
3416;DHT22;1721;51.238;9.562;2023-06-10T10:10:14;26.00;69.80
3416;DHT22;1721;51.238;9.562;2023-06-10T10:12:41;26.10;71.60
3416;DHT22;1721;51.238;9.562;2023-06-10T10:15:11;26.00;71.30
3416;DHT22;1721;51.238;9.562;2023-06-10T10:20:29;26.20;66.30
3416;DHT22;1721;51.238;9.562;2023-06-10T10:22:57;26.10;67.30
3416;DHT22;1721;51.238;9.562;2023-06-10T10:25:34;26.10;67.30
3416;DHT22;1721;51.238;9.562;2023-06-10T10:28:11;26.10;69.60
3416;DHT22;1721;51.238;9.562;2023-06-10T10:30:42;26.10;69.40
3416;DHT22;1721;51.238;9.562;2023-06-10T10:33:21;26.20;65.60
3416;DHT22;1721;51.238;9.562;2023-06-10T10:35:49;26.30;66.70
3416;DHT22;1721;51.238;9.562;2023-06-10T10:38:15;26.20;67.60
3416;DHT22;1721;51.238;9.562;2023-06-10T10:40:42;26.10;66.70
3416;DHT22;1721;51.238;9.562;2023-06-10T10:43:09;26.20;67.00
3416;DHT22;1721;51.238;9.562;2023-06-10T10:45:35;26.20;65.60
3416;DHT22;1721;51.238;9.562;2023-06-10T10:48:06;26.30;65.40
3416;DHT22;1721;51.238;9.562;2023-06-10T10:50:34;26.20;67.30
3416;DHT22;1721;51.238;9.562;2023-06-10T10:53:02;26.30;66.10
3416;DHT22;1721;51.238;9.562;2023-06-10T10:55:28;26.50;63.70
3416;DHT22;1721;51.238;9.562;2023-06-10T10:57:55;26.70;64.50
3416;DHT22;1721;51.238;9.562;2023-06-10T11:00:38;26.70;63.00
3416;DHT22;1721;51.238;9.562;2023-06-10T11:03:13;26.90;62.60
3416;DHT22;1721;51.238;9.562;2023-06-10T11:05:43;27.00;65.10
3416;DHT22;1721;51.238;9.562;2023-06-10T11:08:13;26.60;64.40
3416;DHT22;1721;51.238;9.562;2023-06-10T11:10:40;26.50;68.40
3416;DHT22;1721;51.238;9.562;2023-06-10T11:13:12;26.30;64.50
3416;DHT22;1721;51.238;9.562;2023-06-10T11:15:49;26.30;67.40
3416;DHT22;1721;51.238;9.562;2023-06-10T11:18:27;26.40;69.60
3416;DHT22;1721;51.238;9.562;2023-06-10T11:20:59;26.50;71.00
3416;DHT22;1721;51.238;9.562;2023-06-10T11:26:10;26.70;70.40
3416;DHT22;1721;51.238;9.562;2023-06-10T11:28:36;27.00;68.30
3416;DHT22;1721;51.238;9.562;2023-06-10T11:31:02;27.00;67.80
3416;DHT22;1721;51.238;9.562;2023-06-10T11:33:27;26.80;66.80
3416;DHT22;1721;51.238;9.562;2023-06-10T11:35:54;26.70;69.50
3416;DHT22;1721;51.238;9.562;2023-06-10T11:38:20;26.70;71.60
3416;DHT22;1721;51.238;9.562;2023-06-10T11:40:48;26.80;69.40
3416;DHT22;1721;51.238;9.562;2023-06-10T11:43:17;26.70;71.60
3416;DHT22;1721;51.238;9.562;2023-06-10T11:45:42;26.90;69.30
3416;DHT22;1721;51.238;9.562;2023-06-10T11:48:09;26.90;69.60
3416;DHT22;1721;51.238;9.562;2023-06-10T11:50:36;26.90;69.90
3416;DHT22;1721;51.238;9.562;2023-06-10T11:53:02;26.90;72.10
3416;DHT22;1721;51.238;9.562;2023-06-10T11:55:49;26.70;66.60
3416;DHT22;1721;51.238;9.562;2023-06-10T11:58:22;26.80;66.60
3416;DHT22;1721;51.238;9.562;2023-06-10T12:00:52;27.20;68.20
3416;DHT22;1721;51.238;9.562;2023-06-10T12:03:19;27.10;68.80
3416;DHT22;1721;51.238;9.562;2023-06-10T12:05:59;27.10;66.90
3416;DHT22;1721;51.238;9.562;2023-06-10T12:08:26;27.30;66.90
3416;DHT22;1721;51.238;9.562;2023-06-10T12:10:53;26.90;64.70
3416;DHT22;1721;51.238;9.562;2023-06-10T12:13:19;27.20;63.70
3416;DHT22;1721;51.238;9.562;2023-06-10T12:15:46;27.50;63.10
3416;DHT22;1721;51.238;9.562;2023-06-10T12:18:21;27.70;66.90
3416;DHT22;1721;51.238;9.562;2023-06-10T12:20:47;28.10;65.40
3416;DHT22;1721;51.238;9.562;2023-06-10T12:23:14;28.30;61.80
3416;DHT22;1721;51.238;9.562;2023-06-10T12:25:52;28.40;62.60
3416;DHT22;1721;51.238;9.562;2023-06-10T12:28:22;28.40;64.20
3416;DHT22;1721;51.238;9.562;2023-06-10T12:30:48;28.50;60.50
3416;DHT22;1721;51.238;9.562;2023-06-10T12:33:20;28.50;60.50
3416;DHT22;1721;51.238;9.562;2023-06-10T12:35:52;28.50;60.50
3416;DHT22;1721;51.238;9.562;2023-06-10T12:38:25;28.20;60.20
3416;DHT22;1721;51.238;9.562;2023-06-10T12:40:54;28.20;61.20
3416;DHT22;1721;51.238;9.562;2023-06-10T12:43:26;28.20;60.40
3416;DHT22;1721;51.238;9.562;2023-06-10T12:45:52;28.10;61.00
3416;DHT22;1721;51.238;9.562;2023-06-10T12:48:22;27.90;62.90
3416;DHT22;1721;51.238;9.562;2023-06-10T12:50:55;27.90;61.70
3416;DHT22;1721;51.238;9.562;2023-06-10T12:53:21;27.90;61.20
3416;DHT22;1721;51.238;9.562;2023-06-10T12:55:49;27.80;62.80
3416;DHT22;1721;51.238;9.562;2023-06-10T12:58:15;27.60;64.30
3416;DHT22;1721;51.238;9.562;2023-06-10T13:00:41;27.50;61.30
3416;DHT22;1721;51.238;9.562;2023-06-10T13:03:09;27.50;61.20
3416;DHT22;1721;51.238;9.562;2023-06-10T13:05:35;27.40;60.80
3416;DHT22;1721;51.238;9.562;2023-06-10T13:08:07;27.30;58.00
3416;DHT22;1721;51.238;9.562;2023-06-10T13:10:36;27.30;65.40
3416;DHT22;1721;51.238;9.562;2023-06-10T13:13:02;27.50;61.90
3416;DHT22;1721;51.238;9.562;2023-06-10T13:15:31;27.60;56.80
3416;DHT22;1721;51.238;9.562;2023-06-10T13:17:57;27.70;56.80
3416;DHT22;1721;51.238;9.562;2023-06-10T13:20:23;27.50;57.30
3416;DHT22;1721;51.238;9.562;2023-06-10T13:22:50;27.40;56.80
3416;DHT22;1721;51.238;9.562;2023-06-10T13:25:16;27.30;58.00
3416;DHT22;1721;51.238;9.562;2023-06-10T13:27:42;27.30;58.00
3416;DHT22;1721;51.238;9.562;2023-06-10T13:30:09;27.30;55.70
3416;DHT22;1721;51.238;9.562;2023-06-10T13:32:35;27.30;57.20
3416;DHT22;1721;51.238;9.562;2023-06-10T13:35:02;27.20;55.60
3416;DHT22;1721;51.238;9.562;2023-06-10T13:37:28;27.40;56.00
3416;DHT22;1721;51.238;9.562;2023-06-10T13:39:54;27.60;56.80
3416;DHT22;1721;51.238;9.562;2023-06-10T13:42:20;27.70;56.40
3416;DHT22;1721;51.238;9.562;2023-06-10T13:44:46;27.90;56.70
3416;DHT22;1721;51.238;9.562;2023-06-10T13:47:16;27.60;57.80
3416;DHT22;1721;51.238;9.562;2023-06-10T13:49:42;27.70;57.30
3416;DHT22;1721;51.238;9.562;2023-06-10T13:52:08;27.60;57.80
3416;DHT22;1721;51.238;9.562;2023-06-10T13:54:34;27.70;56.80
3416;DHT22;1721;51.238;9.562;2023-06-10T13:57:03;27.80;57.10
3416;DHT22;1721;51.238;9.562;2023-06-10T13:59:28;27.90;58.70
3416;DHT22;1721;51.238;9.562;2023-06-10T14:01:54;27.90;56.70
3416;DHT22;1721;51.238;9.562;2023-06-10T14:04:20;27.50;56.00
3416;DHT22;1721;51.238;9.562;2023-06-10T14:06:46;27.50;56.60
3416;DHT22;1721;51.238;9.562;2023-06-10T14:09:14;27.50;58.10
3416;DHT22;1721;51.238;9.562;2023-06-10T14:11:41;27.50;58.30
3416;DHT22;1721;51.238;9.562;2023-06-10T14:14:07;27.50;57.80
3416;DHT22;1721;51.238;9.562;2023-06-10T14:16:33;27.70;58.20
3416;DHT22;1721;51.238;9.562;2023-06-10T14:18:58;27.50;58.80
3416;DHT22;1721;51.238;9.562;2023-06-10T14:21:24;27.40;60.80
3416;DHT22;1721;51.238;9.562;2023-06-10T14:23:49;27.30;61.20
3416;DHT22;1721;51.238;9.562;2023-06-10T14:26:17;27.30;60.30
3416;DHT22;1721;51.238;9.562;2023-06-10T14:28:42;27.30;62.10
3416;DHT22;1721;51.238;9.562;2023-06-10T14:31:08;27.20;64.00
3416;DHT22;1721;51.238;9.562;2023-06-10T14:33:33;27.30;60.50
3416;DHT22;1721;51.238;9.562;2023-06-10T14:35:59;27.20;61.60
3416;DHT22;1721;51.238;9.562;2023-06-10T14:38:25;27.30;63.00
3416;DHT22;1721;51.238;9.562;2023-06-10T14:40:50;27.40;60.50
3416;DHT22;1721;51.238;9.562;2023-06-10T14:43:17;27.20;60.70
3416;DHT22;1721;51.238;9.562;2023-06-10T14:45:43;27.20;62.60
3416;DHT22;1721;51.238;9.562;2023-06-10T14:48:09;27.00;62.80
3416;DHT22;1721;51.238;9.562;2023-06-10T14:50:35;27.00;63.40
3416;DHT22;1721;51.238;9.562;2023-06-10T14:53:01;26.90;62.00
3416;DHT22;1721;51.238;9.562;2023-06-10T14:55:28;26.80;61.20
3416;DHT22;1721;51.238;9.562;2023-06-10T14:57:54;26.70;61.80
3416;DHT22;1721;51.238;9.562;2023-06-10T15:00:20;26.80;61.60
3416;DHT22;1721;51.238;9.562;2023-06-10T15:02:48;26.90;63.60
3416;DHT22;1721;51.238;9.562;2023-06-10T15:05:18;27.00;64.10
3416;DHT22;1721;51.238;9.562;2023-06-10T15:07:47;27.10;59.90
3416;DHT22;1721;51.238;9.562;2023-06-10T15:10:13;27.30;58.90
3416;DHT22;1721;51.238;9.562;2023-06-10T15:12:38;27.20;60.00
3416;DHT22;1721;51.238;9.562;2023-06-10T15:15:04;27.10;60.50
3416;DHT22;1721;51.238;9.562;2023-06-10T15:17:30;27.20;59.90
3416;DHT22;1721;51.238;9.562;2023-06-10T15:19:56;27.20;59.30
3416;DHT22;1721;51.238;9.562;2023-06-10T15:22:22;26.90;59.00
3416;DHT22;1721;51.238;9.562;2023-06-10T15:24:47;26.80;58.80
3416;DHT22;1721;51.238;9.562;2023-06-10T15:27:13;26.70;60.10
3416;DHT22;1721;51.238;9.562;2023-06-10T15:29:39;26.60;61.00
3416;DHT22;1721;51.238;9.562;2023-06-10T15:32:05;26.50;61.80
3416;DHT22;1721;51.238;9.562;2023-06-10T15:34:30;26.50;62.10
3416;DHT22;1721;51.238;9.562;2023-06-10T15:36:56;26.70;63.00
3416;DHT22;1721;51.238;9.562;2023-06-10T15:39:21;26.60;63.90
3416;DHT22;1721;51.238;9.562;2023-06-10T15:41:47;26.60;62.80
3416;DHT22;1721;51.238;9.562;2023-06-10T15:44:13;26.80;64.20
3416;DHT22;1721;51.238;9.562;2023-06-10T15:46:38;27.00;65.00
3416;DHT22;1721;51.238;9.562;2023-06-10T15:49:04;27.10;67.10
3416;DHT22;1721;51.238;9.562;2023-06-10T15:51:30;27.10;63.50
3416;DHT22;1721;51.238;9.562;2023-06-10T15:53:57;27.20;63.20
3416;DHT22;1721;51.238;9.562;2023-06-10T15:56:23;27.20;62.20
3416;DHT22;1721;51.238;9.562;2023-06-10T15:58:48;27.00;63.90
3416;DHT22;1721;51.238;9.562;2023-06-10T16:01:14;26.90;61.70
3416;DHT22;1721;51.238;9.562;2023-06-10T16:03:42;26.90;63.00
3416;DHT22;1721;51.238;9.562;2023-06-10T16:06:09;26.70;63.50
3416;DHT22;1721;51.238;9.562;2023-06-10T16:08:36;26.60;62.80